sensor_id;sensor_type;location;lat;lon;timestamp;pressure;altitude;pressure_sealevel;temperature;humidity
27840;BME280;15207;42.182;24.308;2023-01-30T00:01:43;99613.59;;;3.78;73.19
27840;BME280;15207;42.182;24.308;2023-01-30T00:04:09;99605.59;;;3.60;73.59
27840;BME280;15207;42.182;24.308;2023-01-30T00:06:40;99609.28;;;3.56;73.52
27840;BME280;15207;42.182;24.308;2023-01-30T00:09:06;99610.88;;;3.60;73.57
27840;BME280;15207;42.182;24.308;2023-01-30T00:11:32;99615.13;;;3.43;73.31
27840;BME280;15207;42.182;24.308;2023-01-30T00:13:58;99603.88;;;3.38;73.66
27840;BME280;15207;42.182;24.308;2023-01-30T00:16:24;99603.53;;;3.46;72.80
27840;BME280;15207;42.182;24.308;2023-01-30T00:18:50;99608.84;;;3.46;72.48
27840;BME280;15207;42.182;24.308;2023-01-30T00:21:16;99609.47;;;3.51;71.74
27840;BME280;15207;42.182;24.308;2023-01-30T00:23:42;99606.34;;;3.43;70.62
27840;BME280;15207;42.182;24.308;2023-01-30T00:26:09;99612.47;;;3.43;71.82
27840;BME280;15207;42.182;24.308;2023-01-30T00:28:35;99608.50;;;3.54;71.60
27840;BME280;15207;42.182;24.308;2023-01-30T00:31:00;99605.94;;;3.52;71.00
27840;BME280;15207;42.182;24.308;2023-01-30T00:33:26;99593.59;;;3.51;70.36
27840;BME280;15207;42.182;24.308;2023-01-30T00:35:53;99604.47;;;3.45;70.99
27840;BME280;15207;42.182;24.308;2023-01-30T00:38:20;99601.66;;;3.29;70.47
27840;BME280;15207;42.182;24.308;2023-01-30T00:40:46;99604.53;;;3.43;70.37
27840;BME280;15207;42.182;24.308;2023-01-30T00:43:14;99598.03;;;3.32;70.37
27840;BME280;15207;42.182;24.308;2023-01-30T00:45:59;99609.91;;;3.42;70.61
27840;BME280;15207;42.182;24.308;2023-01-30T00:48:44;99595.16;;;3.36;69.88
27840;BME280;15207;42.182;24.308;2023-01-30T00:51:09;99603.53;;;3.46;69.57
27840;BME280;15207;42.182;24.308;2023-01-30T00:53:35;99597.88;;;3.35;69.01
27840;BME280;15207;42.182;24.308;2023-01-30T00:56:00;99599.84;;;3.29;69.51
27840;BME280;15207;42.182;24.308;2023-01-30T00:58:26;99595.78;;;3.22;69.39
27840;BME280;15207;42.182;24.308;2023-01-30T01:00:51;99597.44;;;3.25;69.59
27840;BME280;15207;42.182;24.308;2023-01-30T01:03:18;99603.13;;;3.15;69.01
27840;BME280;15207;42.182;24.308;2023-01-30T01:05:44;99602.56;;;3.28;68.83
27840;BME280;15207;42.182;24.308;2023-01-30T01:08:10;99603.84;;;3.19;68.52
27840;BME280;15207;42.182;24.308;2023-01-30T01:10:35;99590.97;;;3.30;67.90
27840;BME280;15207;42.182;24.308;2023-01-30T01:13:02;99600.50;;;3.35;68.01
27840;BME280;15207;42.182;24.308;2023-01-30T01:15:28;99592.13;;;3.25;67.60
27840;BME280;15207;42.182;24.308;2023-01-30T01:17:54;99596.38;;;3.29;67.91
27840;BME280;15207;42.182;24.308;2023-01-30T01:20:20;99594.84;;;3.23;68.25
27840;BME280;15207;42.182;24.308;2023-01-30T01:22:47;99597.00;;;3.13;67.54
27840;BME280;15207;42.182;24.308;2023-01-30T01:25:14;99581.78;;;3.18;68.33
27840;BME280;15207;42.182;24.308;2023-01-30T01:27:40;99590.47;;;3.22;68.72
27840;BME280;15207;42.182;24.308;2023-01-30T01:30:06;99588.88;;;3.18;68.65
27840;BME280;15207;42.182;24.308;2023-01-30T01:32:32;99587.09;;;3.18;69.07
27840;BME280;15207;42.182;24.308;2023-01-30T01:34:58;99584.31;;;3.22;69.67
27840;BME280;15207;42.182;24.308;2023-01-30T01:37:23;99581.13;;;3.13;69.83
27840;BME280;15207;42.182;24.308;2023-01-30T01:39:49;99580.00;;;3.19;69.72
27840;BME280;15207;42.182;24.308;2023-01-30T01:42:35;99579.09;;;3.20;69.93
27840;BME280;15207;42.182;24.308;2023-01-30T01:45:12;99572.94;;;3.20;69.93
27840;BME280;15207;42.182;24.308;2023-01-30T01:50:23;99568.13;;;3.09;70.89
27840;BME280;15207;42.182;24.308;2023-01-30T01:52:51;99565.78;;;3.22;70.27
27840;BME280;15207;42.182;24.308;2023-01-30T01:55:19;99561.81;;;3.11;70.80
27840;BME280;15207;42.182;24.308;2023-01-30T01:57:57;99562.41;;;3.18;71.07
27840;BME280;15207;42.182;24.308;2023-01-30T02:00:24;99557.13;;;3.18;69.51
27840;BME280;15207;42.182;24.308;2023-01-30T02:03:02;99551.94;;;3.15;69.55
27840;BME280;15207;42.182;24.308;2023-01-30T02:05:32;99545.59;;;3.19;69.69
27840;BME280;15207;42.182;24.308;2023-01-30T02:08:12;99546.31;;;3.23;69.67
27840;BME280;15207;42.182;24.308;2023-01-30T02:13:36;99542.00;;;3.01;69.14
27840;BME280;15207;42.182;24.308;2023-01-30T02:16:03;99532.28;;;3.01;69.37
27840;BME280;15207;42.182;24.308;2023-01-30T02:18:32;99532.13;;;3.04;69.41
27840;BME280;15207;42.182;24.308;2023-01-30T02:21:04;99533.72;;;3.09;69.65
27840;BME280;15207;42.182;24.308;2023-01-30T02:26:22;99541.38;;;2.94;69.62
27840;BME280;15207;42.182;24.308;2023-01-30T02:31:36;99541.53;;;3.12;70.02
27840;BME280;15207;42.182;24.308;2023-01-30T02:42:14;99534.44;;;2.91;69.63
27840;BME280;15207;42.182;24.308;2023-01-30T02:47:28;99538.47;;;2.80;70.33
27840;BME280;15207;42.182;24.308;2023-01-30T02:50:03;99535.78;;;2.81;70.35
27840;BME280;15207;42.182;24.308;2023-01-30T02:52:32;99534.84;;;2.82;70.99
27840;BME280;15207;42.182;24.308;2023-01-30T02:54:58;99539.34;;;2.80;70.43
27840;BME280;15207;42.182;24.308;2023-01-30T02:57:24;99537.16;;;2.90;70.56
27840;BME280;15207;42.182;24.308;2023-01-30T02:59:52;99538.03;;;2.90;70.79
27840;BME280;15207;42.182;24.308;2023-01-30T03:05:07;99543.44;;;2.87;70.67
27840;BME280;15207;42.182;24.308;2023-01-30T03:13:14;99543.00;;;2.77;71.17
27840;BME280;15207;42.182;24.308;2023-01-30T03:15:48;99536.44;;;2.86;71.24
27840;BME280;15207;42.182;24.308;2023-01-30T03:18:16;99531.09;;;2.88;71.15
27840;BME280;15207;42.182;24.308;2023-01-30T03:20:42;99537.22;;;2.88;71.74
27840;BME280;15207;42.182;24.308;2023-01-30T03:23:08;99526.78;;;2.85;71.55
27840;BME280;15207;42.182;24.308;2023-01-30T03:25:36;99513.94;;;2.76;71.79
27840;BME280;15207;42.182;24.308;2023-01-30T03:28:04;99527.50;;;2.68;70.91
27840;BME280;15207;42.182;24.308;2023-01-30T03:30:30;99523.66;;;2.75;71.37
27840;BME280;15207;42.182;24.308;2023-01-30T03:32:55;99520.44;;;2.89;71.33
27840;BME280;15207;42.182;24.308;2023-01-30T03:35:21;99518.50;;;2.93;70.78
27840;BME280;15207;42.182;24.308;2023-01-30T03:37:47;99517.97;;;2.85;71.37
27840;BME280;15207;42.182;24.308;2023-01-30T03:40:15;99515.47;;;2.82;70.64
27840;BME280;15207;42.182;24.308;2023-01-30T03:42:41;99518.31;;;2.77;70.76
27840;BME280;15207;42.182;24.308;2023-01-30T03:45:08;99516.06;;;2.88;71.38
27840;BME280;15207;42.182;24.308;2023-01-30T03:47:33;99510.63;;;2.91;70.61
27840;BME280;15207;42.182;24.308;2023-01-30T03:49:59;99520.69;;;3.04;69.92
27840;BME280;15207;42.182;24.308;2023-01-30T03:52:24;99517.22;;;3.02;69.67
27840;BME280;15207;42.182;24.308;2023-01-30T03:54:50;99513.09;;;2.96;70.21
27840;BME280;15207;42.182;24.308;2023-01-30T03:57:15;99510.16;;;3.02;69.86
27840;BME280;15207;42.182;24.308;2023-01-30T03:59:41;99515.66;;;2.98;69.46
27840;BME280;15207;42.182;24.308;2023-01-30T04:02:07;99514.75;;;2.99;68.86
27840;BME280;15207;42.182;24.308;2023-01-30T04:04:32;99507.72;;;2.98;68.94
27840;BME280;15207;42.182;24.308;2023-01-30T04:06:58;99500.91;;;2.92;68.77
27840;BME280;15207;42.182;24.308;2023-01-30T04:09:24;99501.31;;;2.83;69.26
27840;BME280;15207;42.182;24.308;2023-01-30T04:11:49;99507.28;;;2.88;69.69
27840;BME280;15207;42.182;24.308;2023-01-30T04:14:14;99502.09;;;2.85;68.83
27840;BME280;15207;42.182;24.308;2023-01-30T04:16:40;99498.34;;;2.90;69.24
27840;BME280;15207;42.182;24.308;2023-01-30T04:19:05;99500.31;;;2.85;68.55
27840;BME280;15207;42.182;24.308;2023-01-30T04:21:31;99500.13;;;2.90;68.13
27840;BME280;15207;42.182;24.308;2023-01-30T04:23:57;99498.78;;;2.80;68.58
27840;BME280;15207;42.182;24.308;2023-01-30T04:26:22;99501.81;;;2.91;68.87
27840;BME280;15207;42.182;24.308;2023-01-30T04:28:48;99508.56;;;2.98;69.10
27840;BME280;15207;42.182;24.308;2023-01-30T04:31:13;99505.53;;;3.08;69.21
27840;BME280;15207;42.182;24.308;2023-01-30T04:33:39;99501.56;;;2.97;67.95
27840;BME280;15207;42.182;24.308;2023-01-30T04:36:05;99503.41;;;2.95;68.43
27840;BME280;15207;42.182;24.308;2023-01-30T04:38:33;99507.38;;;3.06;68.57
27840;BME280;15207;42.182;24.308;2023-01-30T04:41:00;99509.00;;;3.08;68.43
27840;BME280;15207;42.182;24.308;2023-01-30T04:43:27;99508.22;;;3.06;68.74
27840;BME280;15207;42.182;24.308;2023-01-30T04:45:52;99510.47;;;3.15;67.98
27840;BME280;15207;42.182;24.308;2023-01-30T04:48:19;99512.31;;;3.13;67.88
27840;BME280;15207;42.182;24.308;2023-01-30T04:50:48;99512.47;;;3.10;68.16
27840;BME280;15207;42.182;24.308;2023-01-30T04:53:15;99513.16;;;2.95;67.84
27840;BME280;15207;42.182;24.308;2023-01-30T04:55:40;99511.09;;;3.01;69.05
27840;BME280;15207;42.182;24.308;2023-01-30T04:58:05;99507.66;;;2.99;69.08
27840;BME280;15207;42.182;24.308;2023-01-30T05:00:31;99508.53;;;3.00;69.17
27840;BME280;15207;42.182;24.308;2023-01-30T05:02:56;99505.88;;;3.00;68.03
27840;BME280;15207;42.182;24.308;2023-01-30T05:05:23;99504.56;;;2.89;68.13
27840;BME280;15207;42.182;24.308;2023-01-30T05:07:49;99507.94;;;2.93;69.43
27840;BME280;15207;42.182;24.308;2023-01-30T05:10:15;99512.50;;;2.89;68.57
27840;BME280;15207;42.182;24.308;2023-01-30T05:12:41;99507.72;;;2.77;68.72
27840;BME280;15207;42.182;24.308;2023-01-30T05:15:07;99501.31;;;2.83;68.46
27840;BME280;15207;42.182;24.308;2023-01-30T05:17:33;99507.66;;;2.78;68.28
27840;BME280;15207;42.182;24.308;2023-01-30T05:19:59;99509.38;;;2.80;68.31
27840;BME280;15207;42.182;24.308;2023-01-30T05:22:24;99509.00;;;2.68;68.87
27840;BME280;15207;42.182;24.308;2023-01-30T05:24:50;99506.88;;;2.76;68.88
27840;BME280;15207;42.182;24.308;2023-01-30T05:27:16;99503.44;;;2.74;68.76
27840;BME280;15207;42.182;24.308;2023-01-30T05:29:41;99504.50;;;2.70;68.98
27840;BME280;15207;42.182;24.308;2023-01-30T05:32:10;99502.25;;;2.82;69.30
27840;BME280;15207;42.182;24.308;2023-01-30T05:34:36;99506.72;;;2.80;69.39
27840;BME280;15207;42.182;24.308;2023-01-30T05:37:02;99504.69;;;2.86;69.67
27840;BME280;15207;42.182;24.308;2023-01-30T05:39:28;99504.34;;;2.94;69.33
27840;BME280;15207;42.182;24.308;2023-01-30T05:41:53;99509.75;;;2.91;69.27
27840;BME280;15207;42.182;24.308;2023-01-30T05:44:19;99512.50;;;2.89;68.55
27840;BME280;15207;42.182;24.308;2023-01-30T05:46:44;99514.66;;;2.80;69.01
27840;BME280;15207;42.182;24.308;2023-01-30T05:49:10;99506.88;;;2.76;69.52
27840;BME280;15207;42.182;24.308;2023-01-30T05:51:35;99511.97;;;2.81;70.26
27840;BME280;15207;42.182;24.308;2023-01-30T05:54:01;99517.84;;;2.88;70.15
27840;BME280;15207;42.182;24.308;2023-01-30T05:56:26;99521.81;;;2.98;68.64
27840;BME280;15207;42.182;24.308;2023-01-30T05:58:53;99512.66;;;3.06;69.84
27840;BME280;15207;42.182;24.308;2023-01-30T06:01:19;99517.69;;;3.12;68.67
27840;BME280;15207;42.182;24.308;2023-01-30T06:03:45;99517.75;;;3.10;69.21
27840;BME280;15207;42.182;24.308;2023-01-30T06:06:12;99516.19;;;3.06;68.69
27840;BME280;15207;42.182;24.308;2023-01-30T06:08:38;99515.53;;;3.01;69.25
27840;BME280;15207;42.182;24.308;2023-01-30T06:11:09;99515.94;;;2.91;69.74
27840;BME280;15207;42.182;24.308;2023-01-30T06:13:35;99520.81;;;3.01;69.79
27840;BME280;15207;42.182;24.308;2023-01-30T06:16:02;99527.34;;;3.13;70.13
27840;BME280;15207;42.182;24.308;2023-01-30T06:18:27;99521.78;;;3.19;68.68
27840;BME280;15207;42.182;24.308;2023-01-30T06:20:53;99523.72;;;3.15;67.65
27840;BME280;15207;42.182;24.308;2023-01-30T06:23:20;99524.66;;;3.14;67.85
27840;BME280;15207;42.182;24.308;2023-01-30T06:25:48;99521.72;;;3.21;67.13
27840;BME280;15207;42.182;24.308;2023-01-30T06:28:15;99520.19;;;3.15;67.10
27840;BME280;15207;42.182;24.308;2023-01-30T06:30:41;99525.38;;;3.18;67.60
27840;BME280;15207;42.182;24.308;2023-01-30T06:33:07;99530.72;;;3.16;68.31
27840;BME280;15207;42.182;24.308;2023-01-30T06:35:33;99523.91;;;3.11;68.71
27840;BME280;15207;42.182;24.308;2023-01-30T06:37:59;99523.66;;;3.17;68.43
27840;BME280;15207;42.182;24.308;2023-01-30T06:40:25;99532.16;;;3.24;69.37
27840;BME280;15207;42.182;24.308;2023-01-30T06:42:50;99526.06;;;3.22;67.98
27840;BME280;15207;42.182;24.308;2023-01-30T06:45:18;99533.00;;;3.24;68.70
27840;BME280;15207;42.182;24.308;2023-01-30T06:47:51;99538.84;;;3.33;69.38
27840;BME280;15207;42.182;24.308;2023-01-30T06:50:19;99531.47;;;3.39;69.14
27840;BME280;15207;42.182;24.308;2023-01-30T06:52:46;99534.59;;;3.28;68.98
27840;BME280;15207;42.182;24.308;2023-01-30T06:55:14;99536.97;;;3.35;68.48
27840;BME280;15207;42.182;24.308;2023-01-30T06:57:41;99531.50;;;3.18;68.70
27840;BME280;15207;42.182;24.308;2023-01-30T07:00:09;99533.81;;;3.26;68.92
27840;BME280;15207;42.182;24.308;2023-01-30T07:02:36;99541.47;;;3.33;69.25
27840;BME280;15207;42.182;24.308;2023-01-30T07:05:01;99543.84;;;3.39;68.92
27840;BME280;15207;42.182;24.308;2023-01-30T07:07:27;99542.84;;;3.41;70.02
27840;BME280;15207;42.182;24.308;2023-01-30T07:09:53;99535.31;;;3.51;70.05
27840;BME280;15207;42.182;24.308;2023-01-30T07:12:19;99538.19;;;3.47;70.22
27840;BME280;15207;42.182;24.308;2023-01-30T07:14:45;99543.44;;;3.48;69.34
27840;BME280;15207;42.182;24.308;2023-01-30T07:17:10;99537.63;;;3.40;67.45
27840;BME280;15207;42.182;24.308;2023-01-30T07:19:36;99543.88;;;3.18;66.67
27840;BME280;15207;42.182;24.308;2023-01-30T07:22:03;99536.63;;;3.02;67.49
27840;BME280;15207;42.182;24.308;2023-01-30T07:24:29;99538.00;;;3.11;67.48
27840;BME280;15207;42.182;24.308;2023-01-30T07:26:55;99539.88;;;3.09;66.11
27840;BME280;15207;42.182;24.308;2023-01-30T07:29:20;99545.00;;;3.12;66.50
27840;BME280;15207;42.182;24.308;2023-01-30T07:31:46;99543.06;;;3.16;66.24
27840;BME280;15207;42.182;24.308;2023-01-30T07:34:12;99545.59;;;3.19;65.56
27840;BME280;15207;42.182;24.308;2023-01-30T07:36:37;99538.13;;;3.29;66.11
27840;BME280;15207;42.182;24.308;2023-01-30T07:39:03;99527.06;;;3.19;65.96
27840;BME280;15207;42.182;24.308;2023-01-30T07:41:29;99542.03;;;3.20;65.28
27840;BME280;15207;42.182;24.308;2023-01-30T07:43:55;99540.53;;;3.14;65.33
27840;BME280;15207;42.182;24.308;2023-01-30T07:46:20;99538.78;;;3.13;65.40
27840;BME280;15207;42.182;24.308;2023-01-30T07:48:46;99538.66;;;3.16;66.32
27840;BME280;15207;42.182;24.308;2023-01-30T07:51:12;99544.66;;;3.20;66.61
27840;BME280;15207;42.182;24.308;2023-01-30T07:53:38;99534.94;;;3.21;66.29
27840;BME280;15207;42.182;24.308;2023-01-30T07:56:11;99539.03;;;3.28;65.80
27840;BME280;15207;42.182;24.308;2023-01-30T07:58:42;99532.72;;;3.30;65.12
27840;BME280;15207;42.182;24.308;2023-01-30T08:01:08;99533.31;;;3.37;65.17
27840;BME280;15207;42.182;24.308;2023-01-30T08:03:34;99530.03;;;3.51;64.64
27840;BME280;15207;42.182;24.308;2023-01-30T08:05:59;99531.91;;;3.68;64.59
27840;BME280;15207;42.182;24.308;2023-01-30T08:08:24;99533.63;;;3.50;63.99
27840;BME280;15207;42.182;24.308;2023-01-30T08:10:50;99537.50;;;3.43;63.50
27840;BME280;15207;42.182;24.308;2023-01-30T08:13:17;99532.97;;;3.45;65.44
27840;BME280;15207;42.182;24.308;2023-01-30T08:15:42;99526.66;;;3.48;64.28
27840;BME280;15207;42.182;24.308;2023-01-30T08:18:08;99529.31;;;3.48;64.65
27840;BME280;15207;42.182;24.308;2023-01-30T08:20:33;99526.53;;;3.51;64.66
27840;BME280;15207;42.182;24.308;2023-01-30T08:22:59;99530.03;;;3.51;64.85
27840;BME280;15207;42.182;24.308;2023-01-30T08:25:26;99531.13;;;3.47;64.21
27840;BME280;15207;42.182;24.308;2023-01-30T08:27:52;99526.66;;;3.48;63.64
27840;BME280;15207;42.182;24.308;2023-01-30T08:30:18;99525.72;;;3.49;64.45
27840;BME280;15207;42.182;24.308;2023-01-30T08:32:45;99519.44;;;3.51;64.74
27840;BME280;15207;42.182;24.308;2023-01-30T08:35:11;99522.88;;;3.53;65.69
27840;BME280;15207;42.182;24.308;2023-01-30T08:37:40;99513.44;;;3.67;65.62
27840;BME280;15207;42.182;24.308;2023-01-30T08:40:06;99512.91;;;3.78;65.74
27840;BME280;15207;42.182;24.308;2023-01-30T08:42:32;99516.44;;;3.78;65.29
27840;BME280;15207;42.182;24.308;2023-01-30T08:44:58;99512.22;;;3.74;66.04
27840;BME280;15207;42.182;24.308;2023-01-30T08:47:24;99503.84;;;3.64;66.66
27840;BME280;15207;42.182;24.308;2023-01-30T08:49:49;99502.38;;;3.76;67.73
27840;BME280;15207;42.182;24.308;2023-01-30T08:52:17;99509.50;;;3.76;69.58
27840;BME280;15207;42.182;24.308;2023-01-30T08:54:42;99502.53;;;3.92;69.70
27840;BME280;15207;42.182;24.308;2023-01-30T08:57:09;99505.47;;;3.86;69.29
27840;BME280;15207;42.182;24.308;2023-01-30T08:59:35;99498.88;;;3.95;70.21
27840;BME280;15207;42.182;24.308;2023-01-30T09:02:02;99502.78;;;4.05;69.63
27840;BME280;15207;42.182;24.308;2023-01-30T09:04:30;99496.19;;;4.14;70.93
27840;BME280;15207;42.182;24.308;2023-01-30T09:06:57;99499.09;;;4.27;70.17
27840;BME280;15207;42.182;24.308;2023-01-30T09:09:22;99495.25;;;4.33;70.09
27840;BME280;15207;42.182;24.308;2023-01-30T09:11:49;99497.84;;;4.34;68.20
27840;BME280;15207;42.182;24.308;2023-01-30T09:14:15;99485.50;;;4.33;67.56
27840;BME280;15207;42.182;24.308;2023-01-30T09:16:47;99479.28;;;4.34;66.28
27840;BME280;15207;42.182;24.308;2023-01-30T09:19:23;99487.53;;;4.46;67.44
27840;BME280;15207;42.182;24.308;2023-01-30T09:21:52;99483.50;;;4.39;66.48
27840;BME280;15207;42.182;24.308;2023-01-30T09:24:19;99475.50;;;4.21;66.27
27840;BME280;15207;42.182;24.308;2023-01-30T09:26:46;99477.88;;;4.27;66.88
27840;BME280;15207;42.182;24.308;2023-01-30T09:29:13;99470.13;;;4.22;65.78
27840;BME280;15207;42.182;24.308;2023-01-30T09:31:39;99467.91;;;4.32;67.97
27840;BME280;15207;42.182;24.308;2023-01-30T09:34:06;99449.00;;;4.39;68.74
27840;BME280;15207;42.182;24.308;2023-01-30T09:36:32;99446.34;;;4.56;67.42
27840;BME280;15207;42.182;24.308;2023-01-30T09:38:58;99447.97;;;4.59;67.23
27840;BME280;15207;42.182;24.308;2023-01-30T09:47:57;99437.13;;;4.63;63.79
27840;BME280;15207;42.182;24.308;2023-01-30T09:53:34;99432.50;;;4.67;65.65
27840;BME280;15207;42.182;24.308;2023-01-30T09:56:01;99420.47;;;4.78;66.28
27840;BME280;15207;42.182;24.308;2023-01-30T09:58:43;99424.44;;;4.86;63.69
27840;BME280;15207;42.182;24.308;2023-01-30T10:01:17;99417.59;;;4.82;58.07
27840;BME280;15207;42.182;24.308;2023-01-30T10:04:04;99411.94;;;4.88;59.40
27840;BME280;15207;42.182;24.308;2023-01-30T10:06:35;99405.53;;;4.93;60.93
27840;BME280;15207;42.182;24.308;2023-01-30T10:09:26;99409.44;;;4.85;59.00
27840;BME280;15207;42.182;24.308;2023-01-30T10:12:03;99401.97;;;4.76;54.41
27840;BME280;15207;42.182;24.308;2023-01-30T10:28:21;99359.16;;;4.66;55.25
27840;BME280;15207;42.182;24.308;2023-01-30T10:30:52;99362.91;;;4.62;54.87
27840;BME280;15207;42.182;24.308;2023-01-30T10:33:21;99358.09;;;4.53;55.03
27840;BME280;15207;42.182;24.308;2023-01-30T10:36:05;99352.66;;;4.72;55.46
27840;BME280;15207;42.182;24.308;2023-01-30T10:38:39;99349.09;;;4.73;53.25
27840;BME280;15207;42.182;24.308;2023-01-30T10:41:23;99338.28;;;4.76;54.17
27840;BME280;15207;42.182;24.308;2023-01-30T10:44:12;99336.66;;;4.73;52.79
27840;BME280;15207;42.182;24.308;2023-01-30T10:49:14;99320.88;;;4.54;53.72
27840;BME280;15207;42.182;24.308;2023-01-30T11:02:19;99289.16;;;4.69;53.60
27840;BME280;15207;42.182;24.308;2023-01-30T11:07:14;99286.44;;;4.70;52.90
27840;BME280;15207;42.182;24.308;2023-01-30T11:09:44;99269.66;;;4.70;53.20
27840;BME280;15207;42.182;24.308;2023-01-30T11:12:11;99265.00;;;4.73;53.37
27840;BME280;15207;42.182;24.308;2023-01-30T11:14:53;99261.44;;;4.90;53.38
27840;BME280;15207;42.182;24.308;2023-01-30T11:17:49;99257.50;;;4.98;53.13
27840;BME280;15207;42.182;24.308;2023-01-30T11:20:18;99253.66;;;4.87;51.32
27840;BME280;15207;42.182;24.308;2023-01-30T11:22:48;99257.41;;;4.83;51.17
27840;BME280;15207;42.182;24.308;2023-01-30T11:25:20;99249.97;;;4.74;51.75
27840;BME280;15207;42.182;24.308;2023-01-30T11:27:55;99239.78;;;4.82;51.65
27840;BME280;15207;42.182;24.308;2023-01-30T11:30:27;99233.00;;;4.76;50.78
27840;BME280;15207;42.182;24.308;2023-01-30T11:33:03;99236.19;;;4.67;52.84
27840;BME280;15207;42.182;24.308;2023-01-30T11:35:30;99229.50;;;4.76;50.71
27840;BME280;15207;42.182;24.308;2023-01-30T11:38:17;99227.88;;;4.89;52.23
27840;BME280;15207;42.182;24.308;2023-01-30T11:40:44;99215.03;;;4.98;51.90
27840;BME280;15207;42.182;24.308;2023-01-30T11:43:12;99204.56;;;5.11;51.19
27840;BME280;15207;42.182;24.308;2023-01-30T11:45:47;99206.13;;;4.99;51.09
27840;BME280;15207;42.182;24.308;2023-01-30T11:48:19;99199.31;;;5.09;50.74
27840;BME280;15207;42.182;24.308;2023-01-30T11:50:47;99192.31;;;5.08;51.70
27840;BME280;15207;42.182;24.308;2023-01-30T11:53:34;99197.69;;;5.23;52.05
27840;BME280;15207;42.182;24.308;2023-01-30T11:56:22;99184.13;;;5.27;51.52
27840;BME280;15207;42.182;24.308;2023-01-30T11:58:58;99181.03;;;5.19;50.31
27840;BME280;15207;42.182;24.308;2023-01-30T12:01:26;99166.16;;;5.16;50.60
27840;BME280;15207;42.182;24.308;2023-01-30T12:03:54;99158.75;;;5.07;50.70
27840;BME280;15207;42.182;24.308;2023-01-30T12:06:27;99157.31;;;5.01;51.37
27840;BME280;15207;42.182;24.308;2023-01-30T12:08:54;99160.97;;;5.15;51.18
27840;BME280;15207;42.182;24.308;2023-01-30T12:26:00;99140.84;;;5.11;51.50
27840;BME280;15207;42.182;24.308;2023-01-30T12:31:08;99139.84;;;4.97;51.46
27840;BME280;15207;42.182;24.308;2023-01-30T12:33:36;99133.53;;;4.84;51.43
27840;BME280;15207;42.182;24.308;2023-01-30T12:36:23;99127.47;;;4.82;52.17
27840;BME280;15207;42.182;24.308;2023-01-30T12:38:56;99129.50;;;4.93;52.67
27840;BME280;15207;42.182;24.308;2023-01-30T12:55:39;99102.44;;;4.55;52.10
27840;BME280;15207;42.182;24.308;2023-01-30T13:03:40;99088.38;;;4.69;52.36
27840;BME280;15207;42.182;24.308;2023-01-30T13:11:53;99087.25;;;4.73;52.44
27840;BME280;15207;42.182;24.308;2023-01-30T13:14:45;99083.22;;;4.82;52.46
27840;BME280;15207;42.182;24.308;2023-01-30T13:19:49;99082.53;;;4.79;52.66
27840;BME280;15207;42.182;24.308;2023-01-30T13:22:34;99076.38;;;4.78;52.23
27840;BME280;15207;42.182;24.308;2023-01-30T13:27:43;99072.50;;;4.84;51.90
27840;BME280;15207;42.182;24.308;2023-01-30T13:30:16;99067.19;;;4.84;51.97
27840;BME280;15207;42.182;24.308;2023-01-30T13:32:46;99064.16;;;4.75;52.85
27840;BME280;15207;42.182;24.308;2023-01-30T13:35:18;99058.91;;;4.74;52.43
27840;BME280;15207;42.182;24.308;2023-01-30T13:37:46;99055.50;;;4.72;52.20
27840;BME280;15207;42.182;24.308;2023-01-30T13:40:35;99064.06;;;4.77;52.67
27840;BME280;15207;42.182;24.308;2023-01-30T13:43:10;99063.13;;;4.78;52.51
27840;BME280;15207;42.182;24.308;2023-01-30T13:45:41;99064.72;;;4.50;52.59
27840;BME280;15207;42.182;24.308;2023-01-30T13:58:43;99051.28;;;4.53;53.12
27840;BME280;15207;42.182;24.308;2023-01-30T14:01:12;99045.63;;;4.59;52.99
27840;BME280;15207;42.182;24.308;2023-01-30T14:03:41;99044.84;;;4.57;52.85
27840;BME280;15207;42.182;24.308;2023-01-30T14:06:32;99052.13;;;4.54;52.46
27840;BME280;15207;42.182;24.308;2023-01-30T14:09:04;99039.41;;;4.44;52.36
27840;BME280;15207;42.182;24.308;2023-01-30T14:11:56;99045.19;;;4.51;52.72
27840;BME280;15207;42.182;24.308;2023-01-30T14:17:12;99046.16;;;4.50;53.51
27840;BME280;15207;42.182;24.308;2023-01-30T14:22:21;99041.50;;;4.54;53.09
27840;BME280;15207;42.182;24.308;2023-01-30T14:30:34;99045.38;;;4.48;52.76
27840;BME280;15207;42.182;24.308;2023-01-30T14:38:34;99026.38;;;4.56;53.75
27840;BME280;15207;42.182;24.308;2023-01-30T14:53:54;99037.22;;;4.20;55.09
27840;BME280;15207;42.182;24.308;2023-01-30T14:56:43;99036.44;;;4.34;54.97
27840;BME280;15207;42.182;24.308;2023-01-30T15:10:39;99031.13;;;4.18;54.97
27840;BME280;15207;42.182;24.308;2023-01-30T15:19:06;99013.53;;;4.01;56.17
27840;BME280;15207;42.182;24.308;2023-01-30T15:24:46;99017.25;;;3.82;57.23
27840;BME280;15207;42.182;24.308;2023-01-30T15:32:29;99034.66;;;3.70;57.17
27840;BME280;15207;42.182;24.308;2023-01-30T15:48:43;99024.75;;;3.24;59.15
27840;BME280;15207;42.182;24.308;2023-01-30T15:51:13;99022.66;;;3.31;59.05
27840;BME280;15207;42.182;24.308;2023-01-30T15:53:42;99024.91;;;3.21;58.94
27840;BME280;15207;42.182;24.308;2023-01-30T15:56:10;99020.94;;;3.30;58.95
27840;BME280;15207;42.182;24.308;2023-01-30T15:58:39;99020.88;;;3.32;59.40
27840;BME280;15207;42.182;24.308;2023-01-30T16:01:05;99023.66;;;3.28;59.86
27840;BME280;15207;42.182;24.308;2023-01-30T16:03:37;99020.00;;;3.31;59.33
27840;BME280;15207;42.182;24.308;2023-01-30T16:06:05;99024.16;;;3.19;58.88
27840;BME280;15207;42.182;24.308;2023-01-30T16:08:35;99024.34;;;3.32;58.91
27840;BME280;15207;42.182;24.308;2023-01-30T16:11:04;99027.41;;;3.24;60.51
27840;BME280;15207;42.182;24.308;2023-01-30T16:13:29;99026.16;;;3.32;59.53
27840;BME280;15207;42.182;24.308;2023-01-30T16:18:34;99023.50;;;3.32;59.58
27840;BME280;15207;42.182;24.308;2023-01-30T16:21:09;99024.53;;;3.29;59.65
27840;BME280;15207;42.182;24.308;2023-01-30T16:23:49;99020.75;;;3.33;60.40
27840;BME280;15207;42.182;24.308;2023-01-30T16:26:16;99019.31;;;3.27;59.88
27840;BME280;15207;42.182;24.308;2023-01-30T16:28:47;99026.47;;;3.25;60.10